Time;durP1;ratioP1;P1;durP2;ratioP2;P2;SDS_P1;SDS_P2;PMS_P1;PMS_P2;Temp;Humidity;BMP_temperature;BMP_pressure;BME280_temperature;BME280_humidity;BME280_pressure;Samples;Min_cycle;Max_cycle;Signal;HPM_P1;HPM_P2
2022/11/26 00:00:17;;;;;;;29.73;15.70;;;6.50;99.90;;;;;;2616516;54;20407;-83
2022/11/26 00:06:04;;;;;;;30.60;15.17;;;6.20;99.90;;;;;;2616702;54;20391;-84
2022/11/26 00:11:51;;;;;;;22.37;14.20;;;6.30;99.90;;;;;;2616923;54;20367;-83
2022/11/26 00:17:41;;;;;;;38.70;16.37;;;6.20;99.90;;;;;;2616256;54;20126;-83
2022/11/26 00:23:30;;;;;;;38.87;17.20;;;6.30;99.90;;;;;;2617180;54;20435;-83
2022/11/26 00:29:17;;;;;;;39.77;16.90;;;6.20;99.90;;;;;;2617960;54;20511;-81
2022/11/26 00:35:05;;;;;;;38.83;18.40;;;6.40;99.90;;;;;;2617874;54;20206;-85
2022/11/26 00:40:52;;;;;;;29.07;15.80;;;6.40;99.90;;;;;;2619721;39;20775;-79
2022/11/26 00:46:41;;;;;;;30.63;14.23;;;6.30;99.90;;;;;;2618862;54;20121;-80
2022/11/26 00:52:33;;;;;;;39.03;17.20;;;6.40;99.90;;;;;;2618712;54;20395;-80
2022/11/26 00:55:40;;;;;;;34.30;16.30;;;6.30;99.90;;;;;;2618369;54;20400;-81
2022/11/26 00:58:12;;;;;;;29.50;16.63;;;6.30;99.90;;;;;;2619047;46;21264;-79
2022/11/26 01:04:03;;;;;;;29.90;15.97;;;6.30;99.90;;;;;;2618795;54;20476;-79
2022/11/26 01:09:51;;;;;;;34.37;17.60;;;6.30;99.90;;;;;;2619100;39;20690;-80
2022/11/26 01:15:40;;;;;;;36.63;16.43;;;6.60;99.90;;;;;;2618848;54;20628;-80
2022/11/26 01:21:30;;;;;;;37.93;18.50;;;6.50;99.90;;;;;;2618604;54;20438;-84
2022/11/26 01:27:21;;;;;;;35.33;18.20;;;6.80;99.90;;;;;;2618871;39;20849;-84
2022/11/26 01:33:12;;;;;;;32.93;14.63;;;6.90;99.90;;;;;;2617918;39;20786;-83
2022/11/26 01:45:26;;;;;;;36.60;17.23;;;7.30;99.90;;;;;;2618117;54;20428;-84
2022/11/26 01:51:23;;;;;;;26.77;17.00;;;7.20;99.90;;;;;;2617550;54;20130;-82
2022/11/26 02:00:33;;;;;;;32.53;17.40;;;7.30;99.90;;;;;;2617471;54;20438;-83
2022/11/26 02:06:25;;;;;;;38.03;17.03;;;7.20;99.90;;;;;;2618040;54;20542;-81
2022/11/26 02:12:13;;;;;;;34.07;15.90;;;7.10;99.90;;;;;;2616913;54;20538;-83
2022/11/26 02:18:05;;;;;;;33.33;15.17;;;6.90;99.90;;;;;;2618394;54;20139;-84
2022/11/26 02:21:09;;;;;;;33.00;14.30;;;6.90;99.90;;;;;;2617117;46;20434;-82
2022/11/26 02:30:18;;;;;;;29.43;16.70;;;6.80;99.90;;;;;;2618299;54;20491;-83
2022/11/26 02:42:25;;;;;;;30.20;14.83;;;6.50;99.90;;;;;;2617968;39;20784;-81
2022/11/26 02:48:19;;;;;;;26.13;15.43;;;6.50;99.90;;;;;;2618620;54;20395;-80
2022/11/26 02:54:07;;;;;;;36.33;15.70;;;6.30;99.90;;;;;;2617244;54;20407;-81
2022/11/26 02:56:34;;;;;;;70.60;17.80;;;6.30;99.90;;;;;;2616769;54;20412;-81
2022/11/26 02:59:01;;;;;;;48.43;16.47;;;6.20;99.90;;;;;;2616758;54;20969;-79
2022/11/26 03:04:52;;;;;;;32.73;15.30;;;6.10;99.90;;;;;;2616717;54;21151;-79
2022/11/26 03:10:39;;;;;;;24.63;13.27;;;6.10;99.90;;;;;;2616873;54;20415;-81
2022/11/26 03:19:48;;;;;;;33.53;14.37;;;6.10;99.90;;;;;;2617435;39;21280;-80
2022/11/26 03:25:36;;;;;;;32.40;13.60;;;5.90;99.90;;;;;;2618182;54;20122;-79
2022/11/26 03:31:24;;;;;;;32.53;14.17;;;5.80;99.90;;;;;;2617944;54;20135;-80
2022/11/26 03:37:15;;;;;;;31.27;14.93;;;5.60;99.90;;;;;;2618934;54;20117;-79
2022/11/26 03:43:03;;;;;;;30.83;15.00;;;5.80;99.90;;;;;;2618956;54;20427;-80
2022/11/26 03:48:51;;;;;;;31.40;14.50;;;5.90;99.90;;;;;;2618464;54;20130;-80
2022/11/26 03:54:39;;;;;;;45.73;14.63;;;5.50;99.90;;;;;;2617554;47;20967;-83
2022/11/26 04:00:27;;;;;;;21.60;14.10;;;5.50;99.90;;;;;;2618225;39;20638;-82
2022/11/26 04:06:14;;;;;;;26.67;15.07;;;5.10;99.90;;;;;;2618860;54;20119;-83
2022/11/26 04:12:02;;;;;;;25.13;15.13;;;5.10;99.90;;;;;;2617700;54;20722;-81
2022/11/26 04:17:50;;;;;;;33.10;15.87;;;5.20;99.90;;;;;;2617235;54;20163;-80
2022/11/26 04:23:37;;;;;;;29.97;14.37;;;5.10;99.90;;;;;;2617163;54;20122;-79
2022/11/26 04:32:46;;;;;;;39.40;14.90;;;4.90;99.90;;;;;;2617020;54;20374;-79
2022/11/26 04:38:33;;;;;;;42.57;15.30;;;5.00;99.90;;;;;;2617366;54;20243;-80
2022/11/26 04:44:20;;;;;;;30.07;16.17;;;5.00;99.90;;;;;;2617473;54;20410;-80
2022/11/26 04:50:09;;;;;;;35.97;15.77;;;5.00;99.90;;;;;;2618547;54;20139;-79
2022/11/26 04:55:57;;;;;;;30.93;16.20;;;4.90;99.90;;;;;;2618842;54;20928;-80
2022/11/26 05:05:54;;;;;;;35.40;15.60;;;5.40;99.90;;;;;;2618568;54;20383;-79
2022/11/26 05:11:41;;;;;;;34.60;16.73;;;5.70;99.90;;;;;;2616940;54;20372;-80
2022/11/26 05:17:28;;;;;;;40.27;16.03;;;5.70;99.90;;;;;;2616565;54;20130;-80
2022/11/26 05:26:37;;;;;;;40.60;17.23;;;5.70;99.90;;;;;;2616308;39;20753;-80
2022/11/26 05:32:25;;;;;;;44.13;16.23;;;5.60;99.90;;;;;;2616598;54;20219;-78
2022/11/26 05:38:12;;;;;;;32.10;15.20;;;5.30;99.90;;;;;;2616745;54;20930;-80
2022/11/26 05:43:59;;;;;;;40.67;16.67;;;5.10;99.90;;;;;;2618094;54;20130;-79
2022/11/26 05:49:47;;;;;;;38.10;16.57;;;5.10;99.90;;;;;;2618118;54;20118;-82
2022/11/26 05:55:35;;;;;;;32.73;16.40;;;4.50;99.90;;;;;;2618601;54;20183;-81
2022/11/26 06:01:22;;;;;;;33.97;15.13;;;4.50;99.90;;;;;;2617945;54;21025;-84
2022/11/26 06:07:10;;;;;;;40.23;17.10;;;4.30;99.90;;;;;;2618341;46;20178;-83
2022/11/26 06:12:58;;;;;;;34.30;16.00;;;4.30;99.90;;;;;;2617170;54;20663;-85
2022/11/26 06:18:46;;;;;;;28.90;16.47;;;4.50;99.90;;;;;;2618269;54;20378;-84
2022/11/26 06:24:35;;;;;;;39.20;18.60;;;4.40;99.90;;;;;;2618054;54;20138;-83
2022/11/26 06:30:23;;;;;;;42.83;18.00;;;4.30;99.90;;;;;;2618695;54;20957;-83
2022/11/26 06:36:10;;;;;;;38.53;18.07;;;4.40;99.90;;;;;;2618472;39;20654;-83
2022/11/26 06:41:58;;;;;;;44.07;19.10;;;4.30;99.90;;;;;;2618227;54;20681;-82
2022/11/26 06:47:47;;;;;;;52.83;19.50;;;4.80;99.90;;;;;;2619617;54;20130;-84
2022/11/26 06:53:35;;;;;;;43.27;20.07;;;4.40;99.90;;;;;;2619635;54;20387;-84
2022/11/26 06:59:24;;;;;;;48.00;20.63;;;4.30;99.90;;;;;;2620217;54;20379;-83
2022/11/26 07:05:11;;;;;;;40.70;20.40;;;4.40;99.90;;;;;;2619147;54;20391;-83
2022/11/26 07:11:02;;;;;;;42.17;17.67;;;4.10;99.90;;;;;;2619155;54;20155;-84
2022/11/26 07:16:51;;;;;;;57.87;21.70;;;4.10;99.90;;;;;;2619789;54;20980;-83
2022/11/26 07:22:39;;;;;;;37.50;19.43;;;5.00;99.90;;;;;;2621033;54;20394;-82
2022/11/26 07:28:27;;;;;;;49.40;22.40;;;4.80;99.90;;;;;;2621911;54;20121;-82
2022/11/26 07:34:14;;;;;;;45.40;23.00;;;4.70;99.90;;;;;;2621504;54;20367;-81
2022/11/26 07:40:04;;;;;;;56.13;26.13;;;5.00;99.90;;;;;;2621451;54;20188;-81
2022/11/26 07:49:13;;;;;;;42.17;22.97;;;5.30;99.90;;;;;;2617915;54;20472;-79
2022/11/26 07:55:00;;;;;;;43.70;22.90;;;5.40;99.90;;;;;;2615955;54;20131;-80
2022/11/26 08:00:48;;;;;;;50.10;22.73;;;5.60;99.90;;;;;;2614735;54;20141;-78
2022/11/26 08:06:35;;;;;;;46.87;22.60;;;5.90;99.90;;;;;;2614998;54;20995;-78
2022/11/26 08:09:59;;;;;;;48.40;22.33;;;6.20;99.90;;;;;;2616639;47;20420;-77
2022/11/26 08:15:48;;;;;;;46.67;20.50;;;7.20;99.90;;;;;;2616837;54;20459;-78
2022/11/26 08:21:37;;;;;;;51.80;22.73;;;7.70;99.90;;;;;;2617303;54;20540;-79
2022/11/26 08:27:24;;;;;;;37.37;20.83;;;7.90;99.90;;;;;;2616157;54;20407;-76
2022/11/26 08:33:13;;;;;;;38.63;21.60;;;7.60;99.90;;;;;;2616577;54;20122;-78
2022/11/26 08:39:01;;;;;;;39.90;21.73;;;7.80;99.90;;;;;;2615359;54;20462;-82
2022/11/26 08:44:50;;;;;;;41.97;19.17;;;8.10;99.90;;;;;;2615933;54;20134;-82
2022/11/26 08:50:38;;;;;;;35.23;18.77;;;8.20;99.90;;;;;;2616069;54;20382;-82
2022/11/26 08:56:26;;;;;;;29.07;19.20;;;8.50;99.90;;;;;;2615881;54;20635;-84
2022/11/26 09:02:13;;;;;;;53.03;20.43;;;8.50;99.90;;;;;;2615497;54;20134;-82
2022/11/26 09:08:10;;;;;;;36.30;17.63;;;8.80;99.90;;;;;;2614635;47;20898;-78
2022/11/26 09:13:58;;;;;;;23.10;13.43;;;9.00;99.90;;;;;;2613447;39;21699;-84
2022/11/26 09:19:45;;;;;;;23.43;13.17;;;9.90;99.90;;;;;;2613809;54;20511;-82
2022/11/26 09:25:32;;;;;;;27.00;13.27;;;10.70;99.90;;;;;;2613873;54;20126;-81
2022/11/26 09:31:19;;;;;;;22.27;10.87;;;11.60;99.90;;;;;;2612777;54;20148;-83
2022/11/26 09:37:06;;;;;;;24.57;10.20;;;12.90;99.90;;;;;;2614879;54;20239;-81
2022/11/26 09:43:03;;;;;;;20.93;10.83;;;12.70;99.90;;;;;;2614188;54;20165;-81
2022/11/26 09:48:54;;;;;;;15.47;7.13;;;13.50;99.90;;;;;;2615628;54;20399;-82
2022/11/26 09:54:44;;;;;;;20.50;8.50;;;13.40;99.90;;;;;;2614352;54;20403;-81
2022/11/26 10:00:38;;;;;;;17.27;7.00;;;15.00;99.90;;;;;;2616520;54;20431;-83
2022/11/26 10:12:57;;;;;;;12.03;6.57;;;13.40;99.90;;;;;;2615306;54;20415;-82
2022/11/26 10:25:18;;;;;;;12.20;7.77;;;12.60;99.90;;;;;;2615969;54;20399;-85
2022/11/26 10:37:37;;;;;;;12.70;6.23;;;11.90;99.90;;;;;;2617561;39;20714;-82
2022/11/26 10:43:25;;;;;;;18.50;6.53;;;10.90;99.90;;;;;;2615593;54;20683;-82
2022/11/26 10:55:42;;;;;;;10.87;5.47;;;11.60;99.90;;;;;;2615206;54;20379;-82
2022/11/26 11:01:37;;;;;;;7.70;6.00;;;12.50;99.90;;;;;;2615845;46;20457;-82
2022/11/26 11:10:57;;;;;;;11.20;5.60;;;12.40;99.90;;;;;;2614320;54;20428;-83
2022/11/26 11:16:44;;;;;;;15.50;6.00;;;12.10;99.90;;;;;;2615374;54;20419;-82
2022/11/26 11:22:32;;;;;;;10.57;7.23;;;11.90;99.90;;;;;;2614161;54;20519;-82
2022/11/26 11:28:23;;;;;;;12.13;5.80;;;11.70;99.90;;;;;;2615667;54;20127;-83
2022/11/26 11:34:18;;;;;;;12.50;6.53;;;11.80;99.90;;;;;;2615376;54;20410;-82
2022/11/26 11:43:43;;;;;;;9.80;5.37;;;12.10;99.90;;;;;;2616184;54;20422;-88
2022/11/26 11:55:50;;;;;;;19.03;8.57;;;11.80;99.90;;;;;;2615556;54;20455;-82
2022/11/26 12:05:36;;;;;;;11.33;4.80;;;11.70;99.90;;;;;;2614986;54;20478;-82
2022/11/26 12:11:30;;;;;;;14.00;5.67;;;11.80;99.90;;;;;;2615943;54;20937;-82
2022/11/26 12:17:20;;;;;;;10.10;5.83;;;11.60;99.90;;;;;;2615529;54;20380;-82
2022/11/26 12:50:15;;;;;;;7.77;5.20;;;11.00;99.90;;;;;;2618020;54;20967;-83
2022/11/26 12:56:25;;;;;;;11.47;6.10;;;11.00;99.90;;;;;;2617819;54;20403;-82
2022/11/26 13:06:12;;;;;;;12.93;5.70;;;11.10;99.90;;;;;;2615151;54;20391;-83
2022/11/26 13:15:32;;;;;;;27.40;6.50;;;11.00;99.90;;;;;;2617025;54;20474;-82
2022/11/26 13:21:30;;;;;;;13.93;6.87;;;10.90;99.90;;;;;;2617435;54;20407;-81
2022/11/26 13:34:21;;;;;;;10.90;6.30;;;10.60;99.90;;;;;;2616241;54;20443;-83
2022/11/26 13:47:05;;;;;;;13.97;6.20;;;10.60;99.90;;;;;;2616341;54;20403;-83
2022/11/26 13:59:19;;;;;;;14.97;6.90;;;10.60;99.90;;;;;;2619133;54;20371;-81
2022/11/26 14:05:15;;;;;;;14.20;6.10;;;10.80;99.90;;;;;;2616367;54;20408;-80
2022/11/26 14:11:04;;;;;;;20.50;6.00;;;11.00;99.90;;;;;;2615110;54;20466;-79
2022/11/26 14:14:19;;;;;;;15.60;6.43;;;11.70;99.90;;;;;;2615320;54;20406;-79
2022/11/26 14:20:09;;;;;;;9.87;5.93;;;11.60;99.90;;;;;;2614935;54;21142;-79
2022/11/26 14:25:56;;;;;;;12.67;5.60;;;11.30;99.90;;;;;;2614765;54;20394;-80
2022/11/26 14:35:20;;;;;;;10.87;6.20;;;11.20;99.90;;;;;;2615015;54;20985;-81
2022/11/26 14:41:07;;;;;;;13.63;5.60;;;11.00;99.90;;;;;;2616532;54;20502;-79
2022/11/26 14:46:58;;;;;;;12.90;6.83;;;11.00;99.90;;;;;;2615888;54;20118;-80
2022/11/26 14:59:01;;;;;;;13.57;7.13;;;10.70;99.90;;;;;;2616839;54;20395;-81
2022/11/26 15:14:45;;;;;;;13.27;5.50;;;10.20;99.90;;;;;;2617465;54;20395;-79
2022/11/26 15:20:33;;;;;;;22.30;6.00;;;10.00;99.90;;;;;;2617431;54;20402;-82
2022/11/26 15:26:23;;;;;;;11.13;5.87;;;9.80;99.90;;;;;;2617024;54;20964;-82
2022/11/26 15:42:59;;;;;;;14.53;7.13;;;9.50;99.90;;;;;;2616737;54;20399;-83
2022/11/26 15:48:53;;;;;;;15.67;5.70;;;9.30;99.90;;;;;;2616214;54;20423;-83
2022/11/26 16:07:22;;;;;;;8.73;4.57;;;9.10;99.90;;;;;;2617093;54;20391;-83
2022/11/26 16:13:10;;;;;;;10.70;5.30;;;9.10;99.90;;;;;;2617579;54;20519;-83
2022/11/26 16:19:00;;;;;;;14.20;6.33;;;9.10;99.90;;;;;;2616827;54;20680;-83
2022/11/26 16:31:25;;;;;;;14.47;5.07;;;9.00;99.90;;;;;;2615221;54;20877;-82
2022/11/26 16:37:21;;;;;;;14.33;5.07;;;8.90;99.90;;;;;;2617867;54;20138;-83
2022/11/26 16:43:09;;;;;;;12.97;6.13;;;8.80;99.90;;;;;;2617911;54;20416;-81
2022/11/26 16:48:58;;;;;;;9.37;6.13;;;8.80;99.90;;;;;;2617955;54;20131;-82
2022/11/26 16:54:47;;;;;;;8.13;6.60;;;8.60;99.90;;;;;;2617126;54;20427;-82
2022/11/26 17:00:34;;;;;;;12.00;6.37;;;8.50;99.90;;;;;;2615809;54;20396;-82
2022/11/26 17:06:29;;;;;;;14.93;7.80;;;8.50;99.90;;;;;;2616361;54;20407;-83
2022/11/26 17:15:38;;;;;;;11.17;6.17;;;8.40;99.90;;;;;;2616632;54;20460;-82
2022/11/26 17:21:25;;;;;;;15.43;5.90;;;8.30;99.90;;;;;;2616740;54;20731;-84
2022/11/26 17:27:16;;;;;;;9.93;6.50;;;8.20;99.90;;;;;;2616747;54;20122;-82
2022/11/26 17:33:05;;;;;;;12.80;6.40;;;8.10;99.90;;;;;;2618302;54;20387;-81
2022/11/26 17:38:53;;;;;;;10.07;5.90;;;8.10;99.90;;;;;;2617818;54;20419;-83
2022/11/26 17:44:40;;;;;;;16.83;7.67;;;8.00;99.90;;;;;;2617694;54;20118;-81
2022/11/26 17:50:29;;;;;;;12.50;5.43;;;7.90;99.90;;;;;;2618213;54;20251;-84
2022/11/26 17:56:22;;;;;;;12.50;8.40;;;7.70;99.90;;;;;;2619968;54;20414;-82
2022/11/26 18:02:10;;;;;;;12.70;7.33;;;7.70;99.90;;;;;;2616071;54;20553;-82
2022/11/26 18:07:57;;;;;;;15.50;9.57;;;7.60;99.90;;;;;;2615991;54;20441;-83
2022/11/26 18:17:11;;;;;;;11.90;7.13;;;7.50;99.90;;;;;;2615609;54;20420;-81
2022/11/26 18:22:59;;;;;;;13.00;8.30;;;7.60;99.90;;;;;;2615565;54;20376;-83
2022/11/26 18:28:47;;;;;;;26.33;23.83;;;7.40;99.90;;;;;;2617118;39;20833;-81
2022/11/26 18:34:34;;;;;;;12.27;6.40;;;7.50;99.90;;;;;;2616164;46;20895;-82
2022/11/26 18:40:22;;;;;;;13.60;7.20;;;7.40;99.90;;;;;;2616124;54;20380;-83
2022/11/26 18:46:14;;;;;;;12.00;7.40;;;7.20;99.90;;;;;;2616013;54;20160;-82
2022/11/26 18:55:23;;;;;;;8.90;8.00;;;7.10;99.90;;;;;;2618700;39;20840;-81
2022/11/26 19:01:16;;;;;;;13.07;6.70;;;7.00;99.90;;;;;;2615980;54;20430;-83
2022/11/26 19:07:04;;;;;;;13.43;7.13;;;7.00;99.90;;;;;;2615057;54;20388;-83
2022/11/26 19:12:52;;;;;;;9.70;7.23;;;7.00;99.90;;;;;;2617143;54;20139;-82
2022/11/26 19:15:17;;;;;;;14.20;7.57;;;7.00;99.90;;;;;;2617617;31;20860;-82
2022/11/26 19:24:28;;;;;;;16.13;8.47;;;6.70;99.90;;;;;;2616775;54;20423;-82
2022/11/26 19:30:17;;;;;;;13.10;6.83;;;7.00;99.90;;;;;;2618065;54;20379;-82
2022/11/26 19:36:11;;;;;;;12.63;6.53;;;6.80;99.90;;;;;;2618407;54;20404;-81
2022/11/26 19:42:00;;;;;;;17.20;7.60;;;6.90;99.90;;;;;;2619799;39;20788;-80
2022/11/26 19:47:50;;;;;;;8.80;5.90;;;6.90;99.90;;;;;;2618335;54;20388;-81
2022/11/26 19:53:39;;;;;;;23.27;9.30;;;6.70;99.90;;;;;;2618520;54;20404;-82
2022/11/26 19:59:26;;;;;;;15.73;8.40;;;6.60;99.90;;;;;;2618047;54;20408;-83
2022/11/26 20:05:14;;;;;;;14.50;7.47;;;6.60;99.90;;;;;;2617670;54;20147;-81
2022/11/26 20:14:23;;;;;;;13.93;7.40;;;6.70;99.90;;;;;;2618230;54;20380;-82
2022/11/26 20:17:35;;;;;;;14.30;7.90;;;6.70;99.90;;;;;;2618991;47;20420;-81
2022/11/26 20:20:01;;;;;;;11.10;6.50;;;6.60;99.90;;;;;;2618132;54;20155;-83
2022/11/26 20:25:49;;;;;;;15.70;9.20;;;6.50;99.90;;;;;;2617157;54;20382;-82
2022/11/26 20:31:46;;;;;;;17.20;8.30;;;6.30;99.90;;;;;;2618694;54;20640;-81
2022/11/26 20:37:34;;;;;;;26.47;15.73;;;6.20;99.90;;;;;;2619421;54;20386;-82
2022/11/26 20:43:22;;;;;;;10.33;6.70;;;6.00;99.90;;;;;;2620061;54;20139;-83
2022/11/26 20:49:10;;;;;;;14.63;8.80;;;6.10;99.90;;;;;;2620352;54;20123;-83
2022/11/26 20:54:58;;;;;;;15.10;7.20;;;6.00;99.90;;;;;;2624477;54;20940;-78
2022/11/26 21:00:46;;;;;;;13.67;7.77;;;6.20;99.90;;;;;;2623933;54;20122;-80
2022/11/26 21:09:57;;;;;;;15.13;6.87;;;6.00;99.90;;;;;;2618507;54;20394;-83
2022/11/26 21:15:48;;;;;;;15.67;7.20;;;6.00;99.90;;;;;;2619316;54;20383;-83
2022/11/26 21:21:35;;;;;;;15.67;6.93;;;6.00;99.90;;;;;;2619193;46;20476;-82
2022/11/26 21:27:23;;;;;;;16.63;9.60;;;6.00;99.90;;;;;;2620050;54;20134;-82
2022/11/26 21:33:11;;;;;;;25.03;7.73;;;6.00;99.90;;;;;;2619417;54;20717;-81
2022/11/26 21:38:59;;;;;;;9.53;6.70;;;6.20;99.90;;;;;;2618004;54;20151;-82
2022/11/26 21:44:46;;;;;;;14.00;7.17;;;6.10;99.90;;;;;;2619791;54;20705;-84
2022/11/26 21:50:34;;;;;;;15.67;6.97;;;6.00;99.90;;;;;;2617610;54;20126;-82
2022/11/26 21:56:27;;;;;;;15.00;6.60;;;6.20;99.90;;;;;;2618689;54;20130;-82
2022/11/26 22:02:15;;;;;;;11.53;7.17;;;6.30;99.90;;;;;;2618430;54;20463;-82
2022/11/26 22:08:03;;;;;;;10.70;6.90;;;6.40;99.90;;;;;;2618742;39;20488;-82
2022/11/26 22:13:51;;;;;;;10.80;8.07;;;6.30;99.90;;;;;;2618339;54;20162;-82
2022/11/26 22:23:01;;;;;;;11.50;8.37;;;6.20;99.90;;;;;;2618914;54;20983;-83
2022/11/26 22:28:50;;;;;;;13.60;7.60;;;6.10;99.90;;;;;;2618920;54;20186;-83
2022/11/26 22:34:38;;;;;;;8.73;5.87;;;6.00;99.90;;;;;;2620945;54;20424;-83
2022/11/26 22:40:26;;;;;;;17.90;7.30;;;5.90;99.90;;;;;;2620280;54;20379;-82
2022/11/26 22:46:19;;;;;;;15.50;7.40;;;6.00;99.90;;;;;;2621263;54;20392;-84
2022/11/26 22:52:08;;;;;;;11.03;7.17;;;5.80;99.90;;;;;;2621354;54;20911;-82
2022/11/26 22:57:55;;;;;;;16.07;7.40;;;5.50;99.90;;;;;;2619567;54;20134;-82
2022/11/26 23:03:43;;;;;;;12.13;8.40;;;5.50;99.90;;;;;;2619839;31;20639;-82
2022/11/26 23:09:31;;;;;;;16.40;9.50;;;5.00;99.90;;;;;;2621284;54;20146;-82
2022/11/26 23:15:19;;;;;;;11.33;6.03;;;5.20;99.90;;;;;;2627519;39;20656;-83
2022/11/26 23:18:31;;;;;;;15.87;8.37;;;5.20;99.90;;;;;;2617634;54;20396;-83
2022/11/26 23:21:05;;;;;;;14.47;9.33;;;5.20;99.90;;;;;;2618826;39;20627;-84
2022/11/26 23:26:54;;;;;;;20.30;8.10;;;4.70;99.90;;;;;;2619585;54;20387;-83
2022/11/26 23:32:42;;;;;;;14.10;6.73;;;4.70;99.90;;;;;;2618732;54;20394;-82
2022/11/26 23:38:29;;;;;;;10.20;6.50;;;5.00;99.90;;;;;;2617075;54;20398;-84
2022/11/26 23:44:17;;;;;;;12.33;5.80;;;5.30;99.90;;;;;;2617548;54;20123;-83
2022/11/26 23:50:06;;;;;;;14.20;5.80;;;5.20;99.90;;;;;;2617395;54;20122;-84
2022/11/26 23:56:01;;;;;;;10.13;5.93;;;5.50;99.90;;;;;;2617428;54;20394;-84
